sensor_id;sensor_type;location;lat;lon;timestamp;P1;durP1;ratioP1;P2;durP2;ratioP2
75285;SDS011;63879;46.064;14.532;2023-04-01T06:00:25;10.88;;;6.15;;
75285;SDS011;63879;46.064;14.532;2023-04-01T06:02:51;9.35;;;5.57;;
75285;SDS011;63879;46.064;14.532;2023-04-01T06:05:18;11.80;;;5.78;;
75285;SDS011;63879;46.064;14.532;2023-04-01T06:07:46;10.07;;;5.50;;
75285;SDS011;63879;46.064;14.532;2023-04-01T06:10:13;8.80;;;4.72;;
75285;SDS011;63879;46.064;14.532;2023-04-01T06:12:55;12.77;;;6.88;;
75285;SDS011;63879;46.064;14.532;2023-04-01T06:15:59;20.83;;;9.68;;
75285;SDS011;63879;46.064;14.532;2023-04-01T06:26:42;8.23;;;4.55;;
75285;SDS011;63879;46.064;14.532;2023-04-01T06:29:39;8.02;;;4.30;;
75285;SDS011;63879;46.064;14.532;2023-04-01T06:32:38;9.73;;;4.28;;
75285;SDS011;63879;46.064;14.532;2023-04-01T06:35:12;8.40;;;4.43;;
75285;SDS011;63879;46.064;14.532;2023-04-01T06:37:49;10.32;;;5.40;;
75285;SDS011;63879;46.064;14.532;2023-04-01T06:53:47;12.88;;;5.65;;
75285;SDS011;63879;46.064;14.532;2023-04-01T06:56:20;11.52;;;6.25;;
75285;SDS011;63879;46.064;14.532;2023-04-01T06:58:52;10.48;;;4.47;;
75285;SDS011;63879;46.064;14.532;2023-04-01T07:01:24;9.63;;;4.60;;
75285;SDS011;63879;46.064;14.532;2023-04-01T07:03:54;7.32;;;3.83;;
75285;SDS011;63879;46.064;14.532;2023-04-01T07:06:27;7.63;;;4.03;;
75285;SDS011;63879;46.064;14.532;2023-04-01T07:08:55;6.82;;;3.45;;
75285;SDS011;63879;46.064;14.532;2023-04-01T07:11:32;9.20;;;4.20;;
75285;SDS011;63879;46.064;14.532;2023-04-01T07:14:01;7.93;;;3.50;;
75285;SDS011;63879;46.064;14.532;2023-04-01T07:16:36;8.50;;;3.88;;
75285;SDS011;63879;46.064;14.532;2023-04-01T07:21:47;7.57;;;3.38;;
75285;SDS011;63879;46.064;14.532;2023-04-01T07:24:16;8.23;;;4.55;;
75285;SDS011;63879;46.064;14.532;2023-04-01T07:26:46;6.50;;;3.85;;
75285;SDS011;63879;46.064;14.532;2023-04-01T07:29:13;8.23;;;4.50;;
75285;SDS011;63879;46.064;14.532;2023-04-01T07:34:25;7.35;;;4.00;;
75285;SDS011;63879;46.064;14.532;2023-04-01T07:37:00;5.80;;;4.05;;
75285;SDS011;63879;46.064;14.532;2023-04-01T07:48:03;5.97;;;3.05;;
75285;SDS011;63879;46.064;14.532;2023-04-01T07:58:57;6.25;;;2.92;;
75285;SDS011;63879;46.064;14.532;2023-04-01T08:06:56;5.95;;;3.30;;
75285;SDS011;63879;46.064;14.532;2023-04-01T08:09:33;7.15;;;3.92;;
75285;SDS011;63879;46.064;14.532;2023-04-01T08:12:11;6.15;;;3.22;;
75285;SDS011;63879;46.064;14.532;2023-04-01T08:17:31;5.22;;;2.72;;
75285;SDS011;63879;46.064;14.532;2023-04-01T08:22:51;5.05;;;2.97;;
75285;SDS011;63879;46.064;14.532;2023-04-01T08:25:26;4.90;;;3.70;;
75285;SDS011;63879;46.064;14.532;2023-04-01T08:33:08;4.60;;;2.75;;
75285;SDS011;63879;46.064;14.532;2023-04-01T08:35:39;5.05;;;2.97;;
75285;SDS011;63879;46.064;14.532;2023-04-01T08:38:17;4.75;;;2.80;;
75285;SDS011;63879;46.064;14.532;2023-04-01T08:59:57;9.10;;;5.55;;
75285;SDS011;63879;46.064;14.532;2023-04-01T09:05:18;6.43;;;4.40;;
75285;SDS011;63879;46.064;14.532;2023-04-01T09:27:04;7.03;;;4.97;;
75285;SDS011;63879;46.064;14.532;2023-04-01T09:29:38;7.95;;;5.20;;
75285;SDS011;63879;46.064;14.532;2023-04-01T09:37:45;11.02;;;5.57;;
75285;SDS011;63879;46.064;14.532;2023-04-01T09:43:28;7.93;;;4.65;;
75285;SDS011;63879;46.064;14.532;2023-04-01T09:49:13;6.15;;;4.18;;
75285;SDS011;63879;46.064;14.532;2023-04-01T10:08:54;5.40;;;3.95;;
75285;SDS011;63879;46.064;14.532;2023-04-01T10:14:46;5.30;;;3.75;;
75285;SDS011;63879;46.064;14.532;2023-04-01T10:20:12;4.80;;;3.13;;
75285;SDS011;63879;46.064;14.532;2023-04-01T10:31:42;4.97;;;3.60;;
75285;SDS011;63879;46.064;14.532;2023-04-01T10:43:06;4.40;;;3.25;;
75285;SDS011;63879;46.064;14.532;2023-04-01T10:54:47;7.82;;;4.82;;
75285;SDS011;63879;46.064;14.532;2023-04-01T11:10:54;6.35;;;4.90;;
75285;SDS011;63879;46.064;14.532;2023-04-01T11:33:00;3.88;;;2.53;;
75285;SDS011;63879;46.064;14.532;2023-04-01T11:38:18;4.38;;;2.95;;
75285;SDS011;63879;46.064;14.532;2023-04-01T11:43:42;4.60;;;3.03;;
75285;SDS011;63879;46.064;14.532;2023-04-01T11:46:11;4.05;;;2.65;;
75285;SDS011;63879;46.064;14.532;2023-04-01T11:54:12;4.05;;;2.30;;
75285;SDS011;63879;46.064;14.532;2023-04-01T11:59:51;3.50;;;2.60;;
75285;SDS011;63879;46.064;14.532;2023-04-01T12:11:07;3.17;;;2.30;;
75285;SDS011;63879;46.064;14.532;2023-04-01T12:14:18;3.40;;;1.48;;
75285;SDS011;63879;46.064;14.532;2023-04-01T12:27:38;2.13;;;1.42;;
75285;SDS011;63879;46.064;14.532;2023-04-01T12:44:01;1.90;;;0.77;;
75285;SDS011;63879;46.064;14.532;2023-04-01T12:46:47;1.73;;;0.90;;
75285;SDS011;63879;46.064;14.532;2023-04-01T12:49:31;2.65;;;1.33;;
75285;SDS011;63879;46.064;14.532;2023-04-01T12:55:18;2.20;;;0.85;;
75285;SDS011;63879;46.064;14.532;2023-04-01T13:17:34;1.50;;;0.65;;
75285;SDS011;63879;46.064;14.532;2023-04-01T13:28:14;1.80;;;1.02;;
75285;SDS011;63879;46.064;14.532;2023-04-01T13:30:48;2.45;;;0.68;;
75285;SDS011;63879;46.064;14.532;2023-04-01T13:33:24;0.90;;;0.40;;
75285;SDS011;63879;46.064;14.532;2023-04-01T13:35:58;1.17;;;0.68;;
75285;SDS011;63879;46.064;14.532;2023-04-01T13:47:24;2.83;;;1.05;;
75285;SDS011;63879;46.064;14.532;2023-04-01T14:15:41;3.40;;;0.88;;
75285;SDS011;63879;46.064;14.532;2023-04-01T14:28:41;3.47;;;1.52;;
75285;SDS011;63879;46.064;14.532;2023-04-01T14:31:18;2.65;;;1.10;;
75285;SDS011;63879;46.064;14.532;2023-04-01T14:45:53;3.88;;;1.65;;
75285;SDS011;63879;46.064;14.532;2023-04-01T14:48:32;3.22;;;1.17;;
75285;SDS011;63879;46.064;14.532;2023-04-01T14:53:44;6.32;;;1.13;;
75285;SDS011;63879;46.064;14.532;2023-04-01T14:56:34;3.35;;;1.15;;
75285;SDS011;63879;46.064;14.532;2023-04-01T14:59:00;3.17;;;1.33;;
75285;SDS011;63879;46.064;14.532;2023-04-01T15:21:27;2.92;;;1.60;;
75285;SDS011;63879;46.064;14.532;2023-04-01T15:27:05;4.63;;;1.52;;
75285;SDS011;63879;46.064;14.532;2023-04-01T15:32:17;2.25;;;1.23;;
75285;SDS011;63879;46.064;14.532;2023-04-01T15:37:55;5.05;;;2.25;;
75285;SDS011;63879;46.064;14.532;2023-04-01T15:40:26;5.80;;;1.90;;
75285;SDS011;63879;46.064;14.532;2023-04-01T15:50:59;3.60;;;1.67;;
75285;SDS011;63879;46.064;14.532;2023-04-01T16:02:18;1.65;;;0.88;;
75285;SDS011;63879;46.064;14.532;2023-04-01T16:04:53;1.75;;;0.75;;
75285;SDS011;63879;46.064;14.532;2023-04-01T16:16:11;3.75;;;1.70;;
75285;SDS011;63879;46.064;14.532;2023-04-01T16:35:13;4.22;;;0.85;;
75285;SDS011;63879;46.064;14.532;2023-04-01T16:37:53;6.47;;;1.15;;
75285;SDS011;63879;46.064;14.532;2023-04-01T16:42:50;3.70;;;1.73;;
75285;SDS011;63879;46.064;14.532;2023-04-01T16:45:32;3.83;;;1.33;;
75285;SDS011;63879;46.064;14.532;2023-04-01T16:48:21;3.65;;;0.85;;
75285;SDS011;63879;46.064;14.532;2023-04-01T16:53:19;3.17;;;1.42;;
75285;SDS011;63879;46.064;14.532;2023-04-01T16:58:36;5.28;;;1.88;;
75285;SDS011;63879;46.064;14.532;2023-04-01T17:01:07;3.55;;;1.88;;
75285;SDS011;63879;46.064;14.532;2023-04-01T17:03:36;4.90;;;2.05;;
75285;SDS011;63879;46.064;14.532;2023-04-01T17:06:08;3.80;;;1.75;;
75285;SDS011;63879;46.064;14.532;2023-04-01T17:11:20;2.95;;;1.85;;
75285;SDS011;63879;46.064;14.532;2023-04-01T17:17:09;4.05;;;1.25;;
75285;SDS011;63879;46.064;14.532;2023-04-01T17:27:57;5.00;;;1.73;;
75285;SDS011;63879;46.064;14.532;2023-04-01T17:30:30;3.60;;;1.33;;
75285;SDS011;63879;46.064;14.532;2023-04-01T17:42:10;3.30;;;0.95;;
75285;SDS011;63879;46.064;14.532;2023-04-01T17:44:52;3.15;;;1.00;;
75285;SDS011;63879;46.064;14.532;2023-04-01T17:47:41;3.35;;;1.17;;
75285;SDS011;63879;46.064;14.532;2023-04-01T17:52:58;3.22;;;1.27;;
75285;SDS011;63879;46.064;14.532;2023-04-01T17:58:40;3.95;;;2.15;;
75285;SDS011;63879;46.064;14.532;2023-04-01T18:17:17;2.83;;;2.13;;
75285;SDS011;63879;46.064;14.532;2023-04-01T18:22:26;3.65;;;2.08;;
75285;SDS011;63879;46.064;14.532;2023-04-01T18:27:36;3.22;;;2.22;;
75285;SDS011;63879;46.064;14.532;2023-04-01T18:32:42;4.28;;;1.88;;
75285;SDS011;63879;46.064;14.532;2023-04-01T18:40:27;6.22;;;3.55;;
75285;SDS011;63879;46.064;14.532;2023-04-01T18:43:04;4.68;;;2.92;;
75285;SDS011;63879;46.064;14.532;2023-04-01T18:45:57;6.63;;;2.95;;
75285;SDS011;63879;46.064;14.532;2023-04-01T18:50:58;8.57;;;7.30;;
75285;SDS011;63879;46.064;14.532;2023-04-01T18:53:47;11.60;;;6.55;;
75285;SDS011;63879;46.064;14.532;2023-04-01T18:59:04;7.25;;;5.03;;
75285;SDS011;63879;46.064;14.532;2023-04-01T19:01:50;9.18;;;5.68;;
75285;SDS011;63879;46.064;14.532;2023-04-01T19:06:57;10.73;;;6.38;;
75285;SDS011;63879;46.064;14.532;2023-04-01T19:09:32;7.82;;;4.90;;
75285;SDS011;63879;46.064;14.532;2023-04-01T19:12:18;8.77;;;5.18;;
75285;SDS011;63879;46.064;14.532;2023-04-01T19:15:00;9.43;;;6.22;;
75285;SDS011;63879;46.064;14.532;2023-04-01T19:20:20;8.85;;;5.20;;
75285;SDS011;63879;46.064;14.532;2023-04-01T19:25:22;6.10;;;4.07;;
75285;SDS011;63879;46.064;14.532;2023-04-01T19:28:16;8.30;;;4.82;;
75285;SDS011;63879;46.064;14.532;2023-04-01T19:30:48;7.25;;;4.32;;
75285;SDS011;63879;46.064;14.532;2023-04-01T19:35:53;7.80;;;4.22;;
75285;SDS011;63879;46.064;14.532;2023-04-01T19:38:26;9.50;;;4.30;;
75285;SDS011;63879;46.064;14.532;2023-04-01T19:41:11;6.68;;;4.10;;
75285;SDS011;63879;46.064;14.532;2023-04-01T19:43:50;8.27;;;4.75;;
75285;SDS011;63879;46.064;14.532;2023-04-01T19:54:28;9.02;;;4.72;;
75285;SDS011;63879;46.064;14.532;2023-04-01T19:59:39;8.77;;;4.68;;
75285;SDS011;63879;46.064;14.532;2023-04-01T20:04:44;7.72;;;4.88;;
75285;SDS011;63879;46.064;14.532;2023-04-01T20:07:21;9.73;;;5.25;;
75285;SDS011;63879;46.064;14.532;2023-04-01T20:09:51;8.10;;;5.43;;
75285;SDS011;63879;46.064;14.532;2023-04-01T20:12:25;11.07;;;5.68;;
75285;SDS011;63879;46.064;14.532;2023-04-01T20:15:02;11.18;;;5.95;;
75285;SDS011;63879;46.064;14.532;2023-04-01T20:17:41;11.10;;;6.13;;
75285;SDS011;63879;46.064;14.532;2023-04-01T20:25:00;11.13;;;6.17;;
75285;SDS011;63879;46.064;14.532;2023-04-01T20:41:20;11.68;;;6.90;;
75285;SDS011;63879;46.064;14.532;2023-04-01T20:44:04;9.23;;;6.00;;
75285;SDS011;63879;46.064;14.532;2023-04-01T20:46:48;10.93;;;6.82;;
75285;SDS011;63879;46.064;14.532;2023-04-01T20:49:20;15.68;;;6.95;;
75285;SDS011;63879;46.064;14.532;2023-04-01T20:52:06;11.68;;;6.82;;
75285;SDS011;63879;46.064;14.532;2023-04-01T21:00:03;9.45;;;5.70;;
